createdAt,value
2023-04-27T00:01:34.151Z,90.39
2023-04-27T00:03:47.826Z,90.19
2023-04-27T00:06:01.400Z,90.29
2023-04-27T00:08:14.926Z,91.22
2023-04-27T00:10:26.961Z,91.11
2023-04-27T00:12:40.539Z,91.01
2023-04-27T00:14:52.635Z,91.63
2023-04-27T00:17:05.024Z,91.84
2023-04-27T00:19:17.133Z,92.36
2023-04-27T00:21:30.681Z,92.40
2023-04-27T00:23:42.780Z,92.09
2023-04-27T00:25:55.361Z,92.71
2023-04-27T00:28:08.428Z,92.91
2023-04-27T00:30:24.040Z,92.91
2023-04-27T00:32:38.096Z,92.81
2023-04-27T00:34:49.175Z,92.91
2023-04-27T00:37:01.271Z,92.91
2023-04-27T00:39:16.349Z,93.23
2023-04-27T00:41:27.871Z,93.23
2023-04-27T00:43:39.914Z,93.43
2023-04-27T00:45:51.136Z,93.64
2023-04-27T00:48:04.170Z,93.54
2023-04-27T00:50:15.263Z,93.64
2023-04-27T00:52:27.370Z,93.64
2023-04-27T00:54:40.936Z,93.64
2023-04-27T00:56:54.542Z,93.85
2023-04-27T00:59:09.006Z,93.54
2023-04-27T01:01:21.748Z,93.33
2023-04-27T01:03:34.975Z,92.91
2023-04-27T01:05:47.380Z,92.30
2023-04-27T01:07:58.951Z,92.30
2023-04-27T01:10:12.524Z,92.71
2023-04-27T01:12:26.104Z,92.30
2023-04-27T01:14:39.719Z,92.19
2023-04-27T01:16:51.814Z,92.19
2023-04-27T01:19:04.756Z,92.09
2023-04-27T01:21:17.435Z,91.26
2023-04-27T01:23:29.543Z,91.67
2023-04-27T01:25:43.143Z,91.67
2023-04-27T01:27:56.740Z,91.88
2023-04-27T01:30:10.301Z,92.50
2023-04-27T01:32:22.399Z,92.71
2023-04-27T01:34:35.957Z,91.57
2023-04-27T01:36:49.028Z,91.88
2023-04-27T01:39:00.127Z,92.50
2023-04-27T01:41:14.686Z,92.19
2023-04-27T01:43:28.488Z,92.30
2023-04-27T01:45:39.679Z,92.40
2023-04-27T01:47:51.823Z,92.71
2023-04-27T01:50:04.388Z,92.91
2023-04-27T01:52:17.417Z,92.91
2023-04-27T01:54:30.403Z,93.02
2023-04-27T01:56:42.595Z,92.44
2023-04-27T01:58:56.215Z,92.76
2023-04-27T02:01:08.258Z,92.85
2023-04-27T02:03:22.002Z,93.16
2023-04-27T02:05:36.286Z,92.96
2023-04-27T02:07:47.513Z,93.16
2023-04-27T02:09:59.630Z,93.06
2023-04-27T02:12:12.633Z,93.58
2023-04-27T02:14:24.638Z,93.27
2023-04-27T02:16:37.362Z,93.48
2023-04-27T02:18:49.432Z,93.27
2023-04-27T02:21:03.309Z,92.96
2023-04-27T02:23:16.349Z,92.55
2023-04-27T02:25:27.453Z,92.55
2023-04-27T02:27:39.546Z,93.06
2023-04-27T02:29:52.508Z,92.96
2023-04-27T02:32:03.710Z,93.16
2023-04-27T02:34:15.786Z,93.27
2023-04-27T02:36:27.893Z,93.58
2023-04-27T02:38:40.823Z,93.68
2023-04-27T02:40:53.523Z,93.89
2023-04-27T02:43:05.617Z,93.99
2023-04-27T02:45:17.680Z,93.79
2023-04-27T02:47:29.826Z,93.99
2023-04-27T02:49:43.361Z,93.79
2023-04-27T02:51:56.321Z,93.79
2023-04-27T02:54:07.550Z,93.93
2023-04-27T02:56:19.593Z,94.45
2023-04-27T02:58:33.191Z,94.14
2023-04-27T03:00:46.455Z,93.83
2023-04-27T03:02:58.918Z,93.93
2023-04-27T03:05:10.962Z,94.14
2023-04-27T03:07:23.098Z,94.35
2023-04-27T03:09:38.614Z,94.35
2023-04-27T03:11:52.241Z,94.14
2023-04-27T03:14:06.171Z,94.14
2023-04-27T03:16:17.427Z,94.04
2023-04-27T03:18:29.451Z,93.10
2023-04-27T03:20:43.038Z,93.31
2023-04-27T03:22:56.981Z,93.62
2023-04-27T03:25:08.175Z,93.83
2023-04-27T03:27:21.786Z,93.41
2023-04-27T03:29:33.860Z,93.62
2023-04-27T03:31:45.981Z,93.52
2023-04-27T03:33:58.052Z,94.04
2023-04-27T03:36:12.569Z,93.73
2023-04-27T03:38:25.226Z,93.62
2023-04-27T03:40:37.291Z,94.14
2023-04-27T03:42:49.366Z,94.14
2023-04-27T03:45:04.970Z,94.45
2023-04-27T03:47:17.046Z,94.04
2023-04-27T03:49:31.617Z,94.14
2023-04-27T03:51:44.022Z,94.14
2023-04-27T03:53:57.037Z,93.83
2023-04-27T03:56:09.636Z,94.14
2023-04-27T03:58:22.718Z,94.14
2023-04-27T04:00:35.816Z,93.21
2023-04-27T04:02:49.066Z,93.41
2023-04-27T04:05:01.987Z,93.73
2023-04-27T04:07:17.532Z,92.49
2023-04-27T04:09:29.622Z,93.10
2023-04-27T04:11:41.726Z,93.27
2023-04-27T04:13:53.807Z,93.58
2023-04-27T04:16:06.910Z,93.48
2023-04-27T04:18:20.431Z,92.55
2023-04-27T04:20:33.530Z,92.34
2023-04-27T04:22:47.132Z,92.24
2023-04-27T04:24:59.195Z,92.55
2023-04-27T04:27:13.952Z,92.50
2023-04-27T04:29:24.902Z,91.47
2023-04-27T04:31:38.080Z,91.99
2023-04-27T04:33:50.101Z,91.99
2023-04-27T04:36:03.666Z,92.09
2023-04-27T04:38:17.273Z,91.94
2023-04-27T04:40:30.847Z,91.74
2023-04-27T04:42:44.443Z,91.01
2023-04-27T04:44:58.011Z,91.17
2023-04-27T04:47:11.590Z,90.66
2023-04-27T04:49:25.174Z,89.83
2023-04-27T04:51:37.266Z,89.52
2023-04-27T04:53:49.361Z,89.52
2023-04-27T04:56:02.975Z,88.96
2023-04-27T04:58:15.009Z,87.83
2023-04-27T05:00:28.619Z,88.82
2023-04-27T05:02:42.431Z,87.89
2023-04-27T05:04:55.864Z,88.10
2023-04-27T05:07:09.404Z,87.58
2023-04-27T05:09:22.961Z,87.02
2023-04-27T05:11:35.070Z,85.27
2023-04-27T05:13:48.631Z,86.10
2023-04-27T05:16:02.262Z,84.44
2023-04-27T05:18:15.856Z,84.65
2023-04-27T05:20:31.383Z,85.02
2023-04-27T05:22:43.454Z,84.51
2023-04-27T05:24:55.545Z,85.02
2023-04-27T05:27:09.129Z,83.58
2023-04-27T05:29:24.136Z,84.09
2023-04-27T05:31:34.813Z,83.06
2023-04-27T05:33:48.387Z,83.48
2023-04-27T05:36:01.354Z,81.82
2023-04-27T05:38:14.065Z,83.78
2023-04-27T05:40:27.669Z,84.72
2023-04-27T05:42:41.261Z,84.27
2023-04-27T05:44:54.836Z,83.33
2023-04-27T05:47:08.423Z,81.16
2023-04-27T05:49:22.007Z,80.85
2023-04-27T05:51:34.124Z,79.41
2023-04-27T05:53:47.683Z,80.27
2023-04-27T05:55:59.791Z,80.51
2023-04-27T05:58:11.855Z,81.57
2023-04-27T06:00:25.447Z,80.98
2023-04-27T06:02:39.351Z,78.17
2023-04-27T06:04:51.151Z,77.65
2023-04-27T06:07:04.712Z,78.64
2023-04-27T06:09:18.280Z,75.42
2023-04-27T06:11:31.270Z,77.13
2023-04-27T06:13:46.003Z,75.04
2023-04-27T06:16:01.594Z,74.12
2023-04-27T06:18:15.175Z,73.98
2023-04-27T06:20:30.730Z,72.44
2023-04-27T06:22:45.221Z,73.10
2023-04-27T06:24:56.423Z,72.17
2023-04-27T06:27:11.965Z,72.65
2023-04-27T06:29:25.552Z,73.57
2023-04-27T06:31:43.969Z,73.40
2023-04-27T06:34:02.002Z,73.19
2023-04-27T06:36:15.620Z,74.36
2023-04-27T06:38:29.170Z,74.26
2023-04-27T06:40:41.276Z,74.57
2023-04-27T06:42:54.331Z,74.15
2023-04-27T06:45:07.956Z,72.89
2023-04-27T06:47:24.478Z,71.90
2023-04-27T06:49:36.466Z,72.27
2023-04-27T06:51:49.539Z,69.68
2023-04-27T06:54:02.234Z,68.66
2023-04-27T06:56:15.302Z,67.26
2023-04-27T06:58:28.915Z,68.24
2023-04-27T07:00:40.975Z,68.01
2023-04-27T07:02:55.492Z,67.73
2023-04-27T07:05:09.545Z,69.06
2023-04-27T07:07:21.753Z,69.57
2023-04-27T07:09:34.253Z,69.61
2023-04-27T07:11:46.461Z,70.94
2023-04-27T07:13:59.458Z,71.15
2023-04-27T07:16:13.106Z,69.51
2023-04-27T07:18:25.163Z,71.80
2023-04-27T07:20:41.653Z,69.95
2023-04-27T07:22:55.239Z,73.02
2023-04-27T07:25:07.437Z,70.46
2023-04-27T07:27:19.521Z,70.29
2023-04-27T07:29:33.495Z,71.08
2023-04-27T07:31:46.802Z,69.84
2023-04-27T07:34:00.272Z,69.20
2023-04-27T07:36:13.884Z,68.48
2023-04-27T07:38:25.960Z,68.79
2023-04-27T07:40:43.771Z,67.74
2023-04-27T07:42:53.715Z,65.30
2023-04-27T07:45:07.783Z,64.26
2023-04-27T07:47:19.372Z,66.06
2023-04-27T07:49:32.933Z,65.68
2023-04-27T07:51:45.908Z,66.84
2023-04-27T07:53:57.161Z,67.80
2023-04-27T07:56:13.594Z,65.39
2023-04-27T07:58:26.284Z,64.87
2023-04-27T08:00:41.850Z,66.57
2023-04-27T08:02:54.288Z,63.29
2023-04-27T08:05:08.477Z,63.57
2023-04-27T08:07:20.884Z,64.50
2023-04-27T08:09:37.996Z,64.37
2023-04-27T08:11:53.568Z,63.35
2023-04-27T08:14:06.636Z,61.58
2023-04-27T08:16:24.785Z,61.43
2023-04-27T08:18:39.188Z,60.19
2023-04-27T08:20:51.954Z,60.42
2023-04-27T08:23:05.530Z,63.00
2023-04-27T08:25:19.655Z,63.31
2023-04-27T08:27:30.726Z,64.43
2023-04-27T08:29:44.285Z,62.43
2023-04-27T08:31:57.827Z,59.69
2023-04-27T08:34:13.279Z,58.34
2023-04-27T08:36:26.825Z,56.78
2023-04-27T08:38:40.444Z,59.00
2023-04-27T08:40:54.003Z,60.69
2023-04-27T08:43:06.434Z,60.75
2023-04-27T08:45:19.000Z,62.11
2023-04-27T08:47:42.551Z,62.80
2023-04-27T08:49:46.188Z,62.08
2023-04-27T08:52:00.642Z,60.99
2023-04-27T08:54:14.246Z,61.77
2023-04-27T08:56:26.911Z,62.45
2023-04-27T08:58:42.544Z,63.06
2023-04-27T09:00:55.504Z,63.29
2023-04-27T09:03:06.793Z,62.61
2023-04-27T09:05:21.168Z,60.86
2023-04-27T09:07:33.835Z,57.43
2023-04-27T09:09:47.431Z,54.77
2023-04-27T09:12:01.050Z,54.46
2023-04-27T09:14:14.614Z,58.73
2023-04-27T09:16:30.213Z,53.01
2023-04-27T09:18:45.805Z,52.43
2023-04-27T09:20:59.378Z,52.30
2023-04-27T09:23:13.865Z,50.56
2023-04-27T09:24:12.943Z,48.04
2023-04-27T09:26:27.525Z,51.43
2023-04-27T09:28:38.933Z,55.89
2023-04-27T09:30:54.569Z,58.84
2023-04-27T09:33:06.787Z,60.84
2023-04-27T09:35:21.159Z,62.88
2023-04-27T09:37:33.848Z,62.14
2023-04-27T09:39:47.438Z,64.01
2023-04-27T09:41:59.507Z,61.73
2023-04-27T09:44:13.616Z,63.26
2023-04-27T09:46:26.284Z,62.83
2023-04-27T09:48:39.840Z,61.31
2023-04-27T09:50:52.286Z,60.08
2023-04-27T09:53:07.835Z,58.78
2023-04-27T09:55:21.464Z,54.72
2023-04-27T09:57:34.959Z,55.20
2023-04-27T09:59:48.542Z,52.73
2023-04-27T10:02:13.296Z,53.14
2023-04-27T10:04:16.841Z,52.68
2023-04-27T10:06:29.315Z,52.63
2023-04-27T10:08:42.900Z,49.00
2023-04-27T10:10:57.382Z,48.44
2023-04-27T10:13:10.079Z,47.94
2023-04-27T10:15:22.168Z,51.04
2023-04-27T10:17:37.862Z,47.66
2023-04-27T10:19:50.252Z,48.11
2023-04-27T10:22:05.400Z,49.07
2023-04-27T10:24:23.517Z,51.35
2023-04-27T10:26:39.354Z,48.73
2023-04-27T10:28:52.698Z,53.64
2023-04-27T10:31:09.205Z,53.19
2023-04-27T10:33:23.852Z,53.70
2023-04-27T10:35:37.473Z,54.21
2023-04-27T10:37:53.511Z,51.56
2023-04-27T10:40:06.618Z,54.51
2023-04-27T10:42:22.184Z,55.26
2023-04-27T10:44:37.747Z,52.42
2023-04-27T10:46:52.328Z,53.44
2023-04-27T10:49:04.932Z,52.86
2023-04-27T10:51:18.488Z,53.55
2023-04-27T10:53:34.091Z,53.42
2023-04-27T10:55:49.549Z,54.64
2023-04-27T10:58:02.267Z,52.81
2023-04-27T11:00:16.267Z,53.37
2023-04-27T11:02:26.487Z,53.04
2023-04-27T11:04:42.063Z,51.64
2023-04-27T11:06:55.062Z,50.34
2023-04-27T11:09:10.686Z,51.75
2023-04-27T11:11:26.091Z,49.96
2023-04-27T11:13:38.793Z,50.98
2023-04-27T11:15:54.401Z,50.16
2023-04-27T11:18:09.976Z,50.70
2023-04-27T11:20:22.057Z,52.02
2023-04-27T11:22:35.608Z,51.36
2023-04-27T11:24:52.095Z,50.55
2023-04-27T11:27:06.819Z,50.34
2023-04-27T11:29:20.824Z,53.02
2023-04-27T11:31:34.016Z,50.42
2023-04-27T11:33:47.052Z,52.25
2023-04-27T11:36:00.648Z,51.31
2023-04-27T11:38:13.625Z,50.81
2023-04-27T11:40:26.310Z,51.95
2023-04-27T11:41:26.324Z,48.41
2023-04-27T11:43:44.382Z,50.09
2023-04-27T11:45:56.568Z,51.43
2023-04-27T11:48:08.622Z,52.02
2023-04-27T11:50:20.635Z,51.15
2023-04-27T11:52:34.201Z,53.11
2023-04-27T11:54:47.823Z,51.61
2023-04-27T11:56:59.906Z,55.28
2023-04-27T11:59:13.878Z,55.48
2023-04-27T12:01:37.585Z,55.76
2023-04-27T12:03:43.767Z,54.85
2023-04-27T12:06:07.217Z,54.61
2023-04-27T12:08:11.358Z,50.80
2023-04-27T12:10:25.010Z,51.20
2023-04-27T12:12:41.018Z,53.44
2023-04-27T12:14:55.162Z,53.04
2023-04-27T12:17:09.436Z,53.52
2023-04-27T12:19:22.874Z,52.40
2023-04-27T12:21:36.841Z,51.18
2023-04-27T12:23:48.534Z,49.45
2023-04-27T12:26:03.167Z,53.72
2023-04-27T12:28:21.179Z,50.45
2023-04-27T12:30:33.454Z,50.12
2023-04-27T12:33:19.744Z,47.19
2023-04-27T12:35:34.986Z,46.58
2023-04-27T12:37:51.470Z,47.98
2023-04-27T12:40:04.124Z,46.20
2023-04-27T12:42:17.241Z,47.16
2023-04-27T12:44:31.739Z,48.89
2023-04-27T12:46:44.077Z,50.34
2023-04-27T12:48:58.537Z,50.34
2023-04-27T12:51:12.117Z,49.98
2023-04-27T12:53:23.691Z,51.17
2023-04-27T12:55:36.806Z,50.44
2023-04-27T12:57:48.869Z,49.29
2023-04-27T13:00:04.441Z,47.92
2023-04-27T13:02:16.578Z,52.84
2023-04-27T13:04:29.733Z,46.03
2023-04-27T13:06:41.778Z,45.87
2023-04-27T13:08:55.064Z,47.37
2023-04-27T13:11:06.859Z,45.93
2023-04-27T13:13:20.430Z,45.98
2023-04-27T13:15:34.020Z,45.01
2023-04-27T13:17:47.596Z,44.68
2023-04-27T13:20:00.573Z,44.26
2023-04-27T13:22:15.267Z,45.21
2023-04-27T13:24:27.448Z,45.33
2023-04-27T13:26:40.322Z,44.12
2023-04-27T13:28:51.556Z,43.99
2023-04-27T13:31:03.624Z,44.48
2023-04-27T13:33:23.266Z,42.86
2023-04-27T13:35:28.688Z,40.53
2023-04-27T13:37:39.923Z,44.01
2023-04-27T13:39:52.083Z,42.94
2023-04-27T13:42:04.363Z,44.08
2023-04-27T13:44:16.639Z,46.82
2023-04-27T13:46:28.605Z,45.98
2023-04-27T13:48:40.718Z,46.59
2023-04-27T13:50:52.706Z,48.16
2023-04-27T13:53:06.361Z,46.01
2023-04-27T13:55:19.935Z,47.67
2023-04-27T13:57:33.491Z,48.59
2023-04-27T13:59:46.544Z,49.69
2023-04-27T14:01:58.879Z,45.93
2023-04-27T14:04:11.666Z,48.34
2023-04-27T14:06:23.601Z,47.08
2023-04-27T14:08:38.081Z,46.35
2023-04-27T14:10:49.386Z,44.85
2023-04-27T14:13:02.662Z,44.10
2023-04-27T14:15:15.325Z,45.68
2023-04-27T14:17:28.416Z,49.25
2023-04-27T14:19:43.995Z,49.02
2023-04-27T14:21:56.067Z,47.37
2023-04-27T14:24:08.163Z,46.94
2023-04-27T14:26:21.115Z,47.37
2023-04-27T14:28:32.312Z,45.48
2023-04-27T14:30:44.381Z,49.17
2023-04-27T14:32:58.953Z,49.40
2023-04-27T14:35:10.053Z,48.07
2023-04-27T14:37:22.126Z,46.52
2023-04-27T14:39:34.350Z,48.15
2023-04-27T14:41:46.306Z,46.42
2023-04-27T14:43:58.676Z,49.15
2023-04-27T14:48:24.343Z,47.05
2023-04-27T14:50:36.405Z,44.40
2023-04-27T14:52:48.533Z,45.52
2023-04-27T14:55:00.927Z,46.03
2023-04-27T14:57:13.028Z,46.05
2023-04-27T14:59:25.078Z,46.58
2023-04-27T15:01:38.193Z,48.46
2023-04-27T15:03:50.388Z,47.77
2023-04-27T15:06:03.516Z,47.16
2023-04-27T15:07:04.468Z,47.54
2023-04-27T15:09:15.699Z,48.66
2023-04-27T15:11:27.644Z,46.55
2023-04-27T15:13:38.869Z,47.77
2023-04-27T15:15:51.476Z,48.07
2023-04-27T15:18:03.047Z,50.84
2023-04-27T15:20:15.047Z,48.18
2023-04-27T15:22:27.129Z,50.72
2023-04-27T15:24:40.223Z,48.07
2023-04-27T15:26:52.321Z,45.94
2023-04-27T15:29:04.364Z,46.11
2023-04-27T15:31:16.484Z,44.36
2023-04-27T15:33:29.511Z,42.69
2023-04-27T15:35:42.558Z,45.18
2023-04-27T15:37:53.653Z,44.26
2023-04-27T15:40:05.766Z,47.13
2023-04-27T15:42:17.850Z,48.03
2023-04-27T15:44:29.947Z,42.22
2023-04-27T15:46:42.088Z,39.70
2023-04-27T15:48:54.082Z,37.18
2023-04-27T15:51:07.014Z,33.23
2023-04-27T15:53:18.234Z,34.14
2023-04-27T15:55:30.300Z,32.79
2023-04-27T15:57:42.421Z,31.12
2023-04-27T15:59:55.351Z,31.59
2023-04-27T16:02:06.623Z,32.65
2023-04-27T16:04:18.743Z,31.71
2023-04-27T16:06:30.769Z,33.69
2023-04-27T16:08:42.870Z,36.08
2023-04-27T16:10:54.908Z,37.50
2023-04-27T16:13:07.029Z,38.30
2023-04-27T16:15:19.100Z,38.96
2023-04-27T16:17:31.788Z,36.77
2023-04-27T16:19:43.572Z,31.18
2023-04-27T16:21:56.247Z,33.69
2023-04-27T16:24:09.837Z,32.09
2023-04-27T16:26:19.523Z,31.60
2023-04-27T16:28:32.550Z,31.90
2023-04-27T16:30:43.709Z,33.77
2023-04-27T16:32:55.854Z,34.92
2023-04-27T16:35:07.856Z,40.61
2023-04-27T16:37:19.905Z,41.50
2023-04-27T16:39:32.928Z,42.37
2023-04-27T16:41:45.003Z,43.53
2023-04-27T16:43:56.165Z,43.77
2023-04-27T16:46:08.369Z,45.73
2023-04-27T16:48:20.313Z,46.36
2023-04-27T16:50:32.406Z,45.77
2023-04-27T16:52:45.500Z,46.81
2023-04-27T16:54:59.461Z,45.79
2023-04-27T16:57:09.662Z,46.02
2023-04-27T16:59:21.732Z,48.18
2023-04-27T17:01:33.833Z,46.75
2023-04-27T17:03:47.061Z,47.57
2023-04-27T17:05:59.861Z,48.61
2023-04-27T17:08:11.065Z,49.95
2023-04-27T17:10:23.133Z,49.02
2023-04-27T17:12:36.093Z,49.55
2023-04-27T17:14:47.302Z,50.78
2023-04-27T17:17:00.255Z,53.77
2023-04-27T17:19:11.516Z,51.53
2023-04-27T17:21:24.418Z,52.37
2023-04-27T17:23:35.611Z,54.51
2023-04-27T17:25:47.689Z,52.06
2023-04-27T17:28:01.505Z,51.98
2023-04-27T17:30:11.960Z,53.92
2023-04-27T17:32:24.893Z,53.95
2023-04-27T17:34:36.020Z,53.23
2023-04-27T17:36:51.615Z,53.77
2023-04-27T17:39:04.690Z,56.23
2023-04-27T17:41:17.713Z,57.66
2023-04-27T17:43:31.312Z,58.72
2023-04-27T17:45:42.450Z,58.03
2023-04-27T17:47:54.577Z,59.46
2023-04-27T17:50:06.628Z,61.74
2023-04-27T17:52:18.697Z,61.98
2023-04-27T17:54:30.299Z,63.54
2023-04-27T17:56:41.827Z,62.96
2023-04-27T17:58:54.980Z,65.22
2023-04-27T18:01:07.914Z,64.53
2023-04-27T18:03:20.227Z,67.41
2023-04-27T18:05:32.162Z,66.93
2023-04-27T18:07:44.217Z,68.46
2023-04-27T18:09:57.840Z,68.29
2023-04-27T18:12:09.882Z,70.38
2023-04-27T18:14:21.990Z,69.87
2023-04-27T18:16:35.614Z,70.72
2023-04-27T18:18:47.639Z,71.75
2023-04-27T18:20:59.738Z,71.34
2023-04-27T18:23:11.803Z,71.78
2023-04-27T18:25:24.863Z,72.03
2023-04-27T18:27:38.044Z,71.72
2023-04-27T18:29:50.014Z,72.47
2023-04-27T18:32:02.140Z,72.16
2023-04-27T18:34:14.225Z,73.22
2023-04-27T18:36:26.265Z,73.33
2023-04-27T18:37:26.268Z,73.43
2023-04-27T18:39:38.362Z,73.68
2023-04-27T18:41:51.402Z,73.88
2023-04-27T18:44:04.491Z,73.50
2023-04-27T18:46:18.130Z,75.36
2023-04-27T18:48:31.759Z,76.01
2023-04-27T18:50:44.870Z,76.22
2023-04-27T18:52:58.481Z,76.12
2023-04-27T18:55:13.557Z,77.29
2023-04-27T18:57:29.211Z,76.98
2023-04-27T18:59:42.876Z,78.15
2023-04-27T19:01:56.975Z,77.12
2023-04-27T19:04:10.382Z,78.56
2023-04-27T19:06:25.852Z,78.39
2023-04-27T19:08:38.697Z,78.50
2023-04-27T19:10:52.918Z,78.91
2023-04-27T19:13:04.175Z,79.77
2023-04-27T19:15:17.723Z,80.50
2023-04-27T19:17:32.335Z,81.23
2023-04-27T19:19:47.836Z,81.26
2023-04-27T19:22:01.519Z,80.95
2023-04-27T19:24:14.078Z,80.74
2023-04-27T19:26:26.294Z,81.30
2023-04-27T19:28:37.710Z,81.92
2023-04-27T19:30:50.806Z,82.03
2023-04-27T19:33:03.851Z,82.13
2023-04-27T19:35:17.321Z,82.89
2023-04-27T19:37:30.566Z,82.37
2023-04-27T19:39:43.616Z,83.20
2023-04-27T19:41:57.200Z,83.00
2023-04-27T19:44:09.327Z,83.24
2023-04-27T19:46:25.189Z,83.14
2023-04-27T19:48:38.754Z,84.90
2023-04-27T19:50:50.864Z,83.97
2023-04-27T19:53:04.439Z,84.11
2023-04-27T19:55:16.556Z,83.90
2023-04-27T19:57:32.118Z,85.14
2023-04-27T19:59:45.669Z,85.56
2023-04-27T20:01:57.874Z,85.39
2023-04-27T20:04:10.057Z,85.81
2023-04-27T20:06:21.945Z,86.22
2023-04-27T20:08:34.998Z,86.64
2023-04-27T20:10:50.463Z,86.95
2023-04-27T20:13:00.682Z,87.40
2023-04-27T20:15:12.755Z,88.13
2023-04-27T20:17:24.897Z,87.92
2023-04-27T20:19:36.908Z,88.23
2023-04-27T20:21:49.904Z,88.75
2023-04-27T20:24:02.652Z,88.75
2023-04-27T20:26:14.708Z,88.34
2023-04-27T20:28:28.545Z,88.85
2023-04-27T20:30:38.923Z,89.37
2023-04-27T20:32:50.993Z,89.21
2023-04-27T20:35:03.098Z,88.69
2023-04-27T20:37:15.180Z,88.84
2023-04-27T20:39:27.253Z,89.46
2023-04-27T20:41:41.258Z,89.98
2023-04-27T20:43:52.466Z,90.70
2023-04-27T20:46:04.520Z,90.70
2023-04-27T20:48:16.895Z,90.70
2023-04-27T20:50:28.994Z,92.57
2023-04-27T20:52:41.932Z,92.78
2023-04-27T20:54:53.105Z,91.95
2023-04-27T20:57:05.198Z,92.05
2023-04-27T20:59:17.279Z,91.95
2023-04-27T21:01:29.398Z,91.74
2023-04-27T21:03:42.462Z,92.26
2023-04-27T21:05:53.557Z,92.10
2023-04-27T21:08:05.610Z,92.61
2023-04-27T21:10:19.574Z,93.97
2023-04-27T21:12:30.778Z,94.18
2023-04-27T21:14:42.852Z,93.35
2023-04-27T21:16:55.066Z,92.93
2023-04-27T21:19:07.002Z,93.35
2023-04-27T21:21:19.094Z,93.66
2023-04-27T21:23:33.086Z,93.49
2023-04-27T21:25:43.252Z,93.29
2023-04-27T21:27:56.270Z,92.97
2023-04-27T21:30:08.332Z,93.18
2023-04-27T21:32:19.506Z,93.80
2023-04-27T21:34:31.634Z,94.12
2023-04-27T21:36:44.584Z,94.12
2023-04-27T21:38:55.770Z,94.53
2023-04-27T21:41:08.762Z,95.05
2023-04-27T21:43:19.951Z,95.57
2023-04-27T21:45:33.327Z,95.78
2023-04-27T21:47:45.098Z,95.36
2023-04-27T21:49:56.193Z,94.64
2023-04-27T21:52:09.167Z,94.68
2023-04-27T21:54:20.346Z,95.20
2023-04-27T21:56:32.450Z,95.40
2023-04-27T21:58:44.517Z,95.93
2023-04-27T22:00:56.593Z,96.45
2023-04-27T22:03:08.876Z,95.93
2023-04-27T22:05:20.772Z,95.62
2023-04-27T22:07:32.872Z,95.66
2023-04-27T22:09:44.918Z,95.87
2023-04-27T22:11:56.994Z,96.08
2023-04-27T22:14:09.070Z,96.39
2023-04-27T22:16:21.194Z,96.70
2023-04-27T22:18:35.144Z,96.59
2023-04-27T22:20:46.314Z,97.43
2023-04-27T22:22:58.392Z,97.49
2023-04-27T22:25:10.466Z,97.38
2023-04-27T22:29:34.654Z,97.38
2023-04-27T22:31:46.724Z,97.17
2023-04-27T22:33:58.797Z,97.07
2023-04-27T22:36:10.870Z,96.97
2023-04-27T22:38:22.940Z,97.49
2023-04-27T22:40:36.018Z,96.86
2023-04-27T22:42:48.111Z,96.70
2023-04-27T22:45:00.193Z,96.91
2023-04-27T22:47:12.425Z,96.91
2023-04-27T22:49:24.369Z,96.80
2023-04-27T22:51:36.489Z,97.12
2023-04-27T22:53:49.503Z,97.43
2023-04-27T22:56:00.623Z,97.22
2023-04-27T22:58:12.704Z,97.12
2023-04-27T23:00:24.778Z,97.33
2023-04-27T23:02:37.019Z,97.27
2023-04-27T23:04:49.818Z,97.58
2023-04-27T23:07:01.964Z,97.58
2023-04-27T23:09:13.346Z,97.47
2023-04-27T23:11:25.176Z,97.47
2023-04-27T23:13:37.260Z,97.89
2023-04-27T23:15:49.321Z,98.52
2023-04-27T23:18:01.486Z,98.31
2023-04-27T23:20:26.719Z,98.20
2023-04-27T23:21:14.470Z,97.99
2023-04-27T23:23:25.578Z,98.56
2023-04-27T23:25:38.521Z,98.35
2023-04-27T23:27:52.230Z,98.46
2023-04-27T23:30:01.841Z,98.56
2023-04-27T23:32:13.870Z,98.97
2023-04-27T23:34:25.950Z,99.60
2023-04-27T23:36:38.589Z,99.71
2023-04-27T23:38:50.112Z,99.71
2023-04-27T23:41:04.106Z,99.40
2023-04-27T23:43:14.284Z,99.29
2023-04-27T23:45:27.245Z,99.50
2023-04-27T23:47:39.392Z,99.33
2023-04-27T23:49:50.539Z,99.33
2023-04-27T23:52:02.627Z,99.13
2023-04-27T23:54:15.813Z,99.13
2023-04-27T23:56:27.650Z,99.33
2023-04-27T23:58:40.407Z,99.17
